createdAt,value
2023-01-26T00:00:08.178Z,31.17
2023-01-26T00:02:53.401Z,33.13
2023-01-26T00:05:39.038Z,31.50
2023-01-26T00:08:24.494Z,34.42
2023-01-26T00:11:12.331Z,27.65
2023-01-26T00:13:59.744Z,29.50
2023-01-26T00:16:45.499Z,26.65
2023-01-26T00:19:30.627Z,34.22
2023-01-26T00:22:16.178Z,28.88
2023-01-26T00:25:01.557Z,23.05
2023-01-26T00:27:47.792Z,23.27
2023-01-26T00:30:32.952Z,25.80
2023-01-26T00:33:18.198Z,24.80
2023-01-26T00:36:03.954Z,22.67
2023-01-26T00:38:50.048Z,25.15
2023-01-26T00:41:53.898Z,22.92
2023-01-26T00:44:40.601Z,24.73
2023-01-26T00:47:25.938Z,26.83
2023-01-26T00:50:11.855Z,25.25
2023-01-26T00:52:57.605Z,27.27
2023-01-26T00:55:43.311Z,31.88
2023-01-26T00:58:28.641Z,27.65
2023-01-26T01:01:15.063Z,29.25
2023-01-26T01:04:00.882Z,34.47
2023-01-26T01:06:46.439Z,31.45
2023-01-26T01:09:31.701Z,32.90
2023-01-26T01:12:17.125Z,33.58
2023-01-26T01:15:02.657Z,30.80
2023-01-26T01:17:50.215Z,31.42
2023-01-26T01:20:35.717Z,32.95
2023-01-26T01:23:21.384Z,37.55
2023-01-26T01:26:07.036Z,34.67
2023-01-26T01:28:56.007Z,30.75
2023-01-26T01:31:43.152Z,29.40
2023-01-26T01:34:28.198Z,33.00
2023-01-26T01:37:15.162Z,34.22
2023-01-26T01:40:00.733Z,30.00
2023-01-26T01:42:48.303Z,28.75
2023-01-26T01:45:42.020Z,31.88
2023-01-26T01:48:36.473Z,27.15
2023-01-26T01:51:34.574Z,29.90
2023-01-26T01:54:30.287Z,26.35
2023-01-26T01:57:28.446Z,30.63
2023-01-26T02:00:19.549Z,30.92
2023-01-26T02:03:14.395Z,26.48
2023-01-26T02:06:28.896Z,29.50
2023-01-26T02:09:34.297Z,23.75
2023-01-26T02:12:23.293Z,29.60
2023-01-26T02:15:08.959Z,24.73
2023-01-26T02:17:54.811Z,24.60
2023-01-26T02:20:44.072Z,29.35
2023-01-26T02:23:52.402Z,30.45
2023-01-26T02:26:38.543Z,34.50
2023-01-26T02:29:24.214Z,36.00
2023-01-26T02:32:09.922Z,32.90
2023-01-26T02:34:57.760Z,37.45
2023-01-26T02:37:42.992Z,35.75
2023-01-26T02:40:48.681Z,40.33
2023-01-26T02:43:35.071Z,38.88
2023-01-26T02:46:22.368Z,33.80
2023-01-26T02:49:26.284Z,36.08
2023-01-26T02:52:11.387Z,40.53
2023-01-26T02:55:15.441Z,40.75
2023-01-26T02:58:02.978Z,40.28
2023-01-26T03:00:50.812Z,37.58
2023-01-26T03:03:42.289Z,37.47
2023-01-26T03:06:27.509Z,39.50
2023-01-26T03:09:15.421Z,33.95
2023-01-26T03:12:00.791Z,33.85
2023-01-26T03:14:46.645Z,30.23
2023-01-26T03:17:32.001Z,42.20
2023-01-26T03:20:52.885Z,32.17
2023-01-26T03:23:57.103Z,32.92
2023-01-26T03:27:05.332Z,28.25
2023-01-26T03:29:51.467Z,31.27
2023-01-26T03:32:36.965Z,34.15
2023-01-26T03:35:24.596Z,29.38
2023-01-26T03:38:10.355Z,28.90
2023-01-26T03:41:24.025Z,31.10
2023-01-26T03:44:27.917Z,29.98
2023-01-26T03:47:33.102Z,30.33
2023-01-26T03:50:36.921Z,31.17
2023-01-26T03:53:42.621Z,30.02
2023-01-26T03:56:33.452Z,25.17
2023-01-26T03:59:37.774Z,28.67
2023-01-26T04:02:44.464Z,24.77
2023-01-26T04:05:48.670Z,30.13
2023-01-26T04:08:33.695Z,27.73
2023-01-26T04:11:21.048Z,30.35
2023-01-26T04:14:25.171Z,26.63
2023-01-26T04:17:29.371Z,28.73
2023-01-26T04:20:34.373Z,26.75
2023-01-26T04:23:20.104Z,24.55
2023-01-26T04:26:07.304Z,22.25
2023-01-26T04:28:53.148Z,22.35
2023-01-26T04:31:39.591Z,22.95
2023-01-26T04:34:24.694Z,24.92
2023-01-26T04:37:10.570Z,23.80
2023-01-26T04:40:04.252Z,22.33
2023-01-26T04:42:50.974Z,24.52
2023-01-26T04:45:36.329Z,29.70
2023-01-26T04:48:21.551Z,24.25
2023-01-26T04:51:14.181Z,24.50
2023-01-26T04:53:59.447Z,28.35
2023-01-26T04:56:45.630Z,30.75
2023-01-26T04:59:30.936Z,30.80
2023-01-26T05:02:19.178Z,28.38
2023-01-26T05:05:04.845Z,27.90
2023-01-26T05:07:50.448Z,32.25
2023-01-26T05:10:35.995Z,32.53
2023-01-26T05:13:43.259Z,32.50
2023-01-26T05:16:34.566Z,31.83
2023-01-26T05:19:37.480Z,31.70
2023-01-26T05:22:49.224Z,29.48
2023-01-26T05:25:58.326Z,32.60
2023-01-26T05:28:43.704Z,28.23
2023-01-26T05:31:29.264Z,33.35
2023-01-26T05:34:14.633Z,33.30
2023-01-26T05:37:00.108Z,30.77
2023-01-26T05:39:45.816Z,37.80
2023-01-26T05:42:31.855Z,29.38
2023-01-26T05:45:33.027Z,25.75
2023-01-26T05:48:19.881Z,26.23
2023-01-26T05:51:09.021Z,24.90
2023-01-26T05:53:55.642Z,28.30
2023-01-26T05:56:41.011Z,28.08
2023-01-26T05:59:26.421Z,26.88
2023-01-26T06:02:12.750Z,29.85
2023-01-26T06:05:00.101Z,25.13
2023-01-26T06:07:45.394Z,26.17
2023-01-26T06:10:36.239Z,21.05
2023-01-26T06:13:33.317Z,24.02
2023-01-26T06:16:33.930Z,25.98
2023-01-26T06:19:19.135Z,23.83
2023-01-26T06:22:11.898Z,22.45
2023-01-26T06:25:00.383Z,24.73
2023-01-26T06:27:45.495Z,23.98
2023-01-26T06:30:43.911Z,25.02
2023-01-26T06:33:36.295Z,20.92
2023-01-26T06:36:22.698Z,24.45
2023-01-26T06:39:11.326Z,22.95
2023-01-26T06:41:56.813Z,21.95
2023-01-26T06:44:42.289Z,23.60
2023-01-26T06:47:27.580Z,30.40
2023-01-26T06:50:15.568Z,23.85
2023-01-26T06:53:04.182Z,26.40
2023-01-26T06:55:58.855Z,23.40
2023-01-26T06:58:52.824Z,25.48
2023-01-26T07:01:57.718Z,26.50
2023-01-26T07:04:43.304Z,28.83
2023-01-26T07:07:29.129Z,26.00
2023-01-26T07:10:14.545Z,25.75
2023-01-26T07:12:59.640Z,26.80
2023-01-26T07:15:44.844Z,27.13
2023-01-26T07:18:30.410Z,27.02
2023-01-26T07:21:18.715Z,23.70
2023-01-26T07:24:04.326Z,29.10
2023-01-26T07:26:49.688Z,24.25
2023-01-26T07:29:35.070Z,24.08
2023-01-26T07:32:20.574Z,21.50
2023-01-26T07:35:07.088Z,22.30
2023-01-26T07:37:52.138Z,25.88
2023-01-26T07:40:37.620Z,23.67
2023-01-26T07:43:23.513Z,24.65
2023-01-26T07:46:12.294Z,22.50
2023-01-26T07:48:57.321Z,24.60
2023-01-26T07:51:42.618Z,20.10
2023-01-26T07:54:27.885Z,24.00
2023-01-26T07:57:13.193Z,27.67
2023-01-26T07:59:58.670Z,22.38
2023-01-26T08:02:44.131Z,21.95
2023-01-26T08:05:29.505Z,22.95
2023-01-26T08:08:15.188Z,25.15
2023-01-26T08:11:01.518Z,24.92
2023-01-26T08:13:46.716Z,21.73
2023-01-26T08:16:32.066Z,23.42
2023-01-26T08:19:17.399Z,24.17
2023-01-26T08:22:02.627Z,26.17
2023-01-26T08:24:48.319Z,23.00
2023-01-26T08:27:36.640Z,21.40
2023-01-26T08:30:22.006Z,25.63
2023-01-26T08:33:07.059Z,24.33
2023-01-26T08:35:52.607Z,23.00
2023-01-26T08:38:37.974Z,22.17
2023-01-26T08:41:23.184Z,22.42
2023-01-26T08:44:10.376Z,21.88
2023-01-26T08:46:55.499Z,23.63
2023-01-26T08:49:40.833Z,21.50
2023-01-26T08:52:26.199Z,22.48
2023-01-26T08:55:11.900Z,22.02
2023-01-26T08:57:57.589Z,26.75
2023-01-26T09:00:43.104Z,22.27
2023-01-26T09:03:28.334Z,23.15
2023-01-26T09:06:15.773Z,21.70
2023-01-26T09:09:01.373Z,26.65
2023-01-26T09:11:47.117Z,21.38
2023-01-26T09:14:32.326Z,19.25
2023-01-26T09:17:17.585Z,24.80
2023-01-26T09:20:04.822Z,19.58
2023-01-26T09:22:50.088Z,22.23
2023-01-26T09:25:39.731Z,20.35
2023-01-26T09:28:24.997Z,18.73
2023-01-26T09:31:11.504Z,21.67
2023-01-26T09:33:57.202Z,18.80
2023-01-26T09:36:42.165Z,19.75
2023-01-26T09:39:27.485Z,21.98
2023-01-26T09:42:30.550Z,21.23
2023-01-26T09:45:24.717Z,18.63
2023-01-26T09:48:28.598Z,15.68
2023-01-26T09:51:37.623Z,21.40
2023-01-26T09:54:26.744Z,20.10
2023-01-26T09:57:14.688Z,20.98
2023-01-26T10:00:09.571Z,17.85
2023-01-26T10:03:13.193Z,17.58
2023-01-26T10:06:04.692Z,19.55
2023-01-26T10:09:34.877Z,18.27
2023-01-26T10:12:30.416Z,22.05
2023-01-26T10:15:41.506Z,18.40
2023-01-26T10:18:32.333Z,21.30
2023-01-26T10:21:22.510Z,21.80
2023-01-26T10:24:11.020Z,23.50
2023-01-26T10:26:58.527Z,23.63
2023-01-26T10:29:44.060Z,24.05
2023-01-26T10:32:29.546Z,19.60
2023-01-26T10:35:20.427Z,24.85
2023-01-26T10:38:34.023Z,29.27
2023-01-26T10:41:25.675Z,25.35
2023-01-26T10:44:11.626Z,22.90
2023-01-26T10:47:15.423Z,23.80
2023-01-26T10:50:21.368Z,20.70
2023-01-26T10:53:13.744Z,19.50
2023-01-26T10:56:13.363Z,23.67
2023-01-26T10:59:03.030Z,21.58
2023-01-26T11:01:53.704Z,24.17
2023-01-26T11:04:39.812Z,22.85
2023-01-26T11:07:34.123Z,22.30
2023-01-26T11:10:29.725Z,21.58
2023-01-26T11:13:20.431Z,20.58
2023-01-26T11:16:22.664Z,19.65
2023-01-26T11:19:25.132Z,20.85
2023-01-26T11:22:20.342Z,19.45
2023-01-26T11:25:27.575Z,23.20
2023-01-26T11:28:30.985Z,23.38
2023-01-26T11:31:31.319Z,26.92
2023-01-26T11:34:40.407Z,26.65
2023-01-26T11:37:46.553Z,30.33
2023-01-26T11:40:50.978Z,22.90
2023-01-26T11:44:18.707Z,21.75
2023-01-26T11:47:14.815Z,24.20
2023-01-26T11:50:21.860Z,20.92
2023-01-26T11:53:24.734Z,23.55
2023-01-26T11:56:14.815Z,25.33
2023-01-26T11:59:12.294Z,22.92
2023-01-26T12:02:20.150Z,21.15
2023-01-26T12:05:17.550Z,21.23
2023-01-26T12:08:25.371Z,19.60
2023-01-26T12:11:28.276Z,21.48
2023-01-26T12:14:29.755Z,25.20
2023-01-26T12:17:34.874Z,22.60
2023-01-26T12:20:43.278Z,24.50
2023-01-26T12:23:47.660Z,25.58
2023-01-26T12:26:40.908Z,20.73
2023-01-26T12:29:38.488Z,22.23
2023-01-26T12:32:24.687Z,22.80
2023-01-26T12:35:13.859Z,22.80
2023-01-26T12:38:17.560Z,19.17
2023-01-26T12:41:08.863Z,22.48
2023-01-26T12:44:25.860Z,21.25
2023-01-26T12:47:20.327Z,18.77
2023-01-26T12:50:29.881Z,15.00
2023-01-26T12:53:30.115Z,17.05
2023-01-26T12:56:31.898Z,18.25
2023-01-26T12:59:39.220Z,22.15
2023-01-26T13:02:31.754Z,15.27
2023-01-26T13:05:32.697Z,16.20
2023-01-26T13:08:30.338Z,15.05
2023-01-26T13:11:45.995Z,15.88
2023-01-26T13:14:32.935Z,17.35
2023-01-26T13:17:18.992Z,14.63
2023-01-26T13:20:27.120Z,13.20
2023-01-26T13:23:41.810Z,14.43
2023-01-26T13:26:33.277Z,16.42
2023-01-26T13:29:33.222Z,14.50
2023-01-26T13:32:18.505Z,14.85
2023-01-26T13:35:05.733Z,15.00
2023-01-26T13:38:00.597Z,15.02
2023-01-26T13:40:49.818Z,16.67
2023-01-26T13:43:50.429Z,15.88
2023-01-26T13:46:47.106Z,14.38
2023-01-26T13:49:40.666Z,13.10
2023-01-26T13:52:27.794Z,14.57
2023-01-26T13:55:22.332Z,15.73
2023-01-26T13:58:12.681Z,15.02
2023-01-26T14:01:13.577Z,16.05
2023-01-26T14:04:06.354Z,13.93
2023-01-26T14:07:02.877Z,13.80
2023-01-26T14:09:51.230Z,17.10
2023-01-26T14:12:48.801Z,17.10
2023-01-26T14:15:34.955Z,20.13
2023-01-26T14:18:22.423Z,20.90
2023-01-26T14:21:18.671Z,19.15
2023-01-26T14:24:09.107Z,20.42
2023-01-26T14:26:54.750Z,19.77
2023-01-26T14:29:39.823Z,20.77
2023-01-26T14:32:29.322Z,21.00
2023-01-26T14:35:23.221Z,19.17
2023-01-26T14:38:11.655Z,21.77
2023-01-26T14:40:59.859Z,23.17
2023-01-26T14:43:45.122Z,19.27
2023-01-26T14:46:59.678Z,22.42
2023-01-26T14:49:44.985Z,19.35
2023-01-26T14:52:34.185Z,17.90
2023-01-26T14:55:19.326Z,18.23
2023-01-26T14:58:15.561Z,22.50
2023-01-26T15:01:01.808Z,18.55
2023-01-26T15:03:51.329Z,18.80
2023-01-26T15:06:36.743Z,24.63
2023-01-26T15:09:28.668Z,23.40
2023-01-26T15:12:17.066Z,30.10
2023-01-26T15:15:03.007Z,21.98
2023-01-26T15:18:00.976Z,25.17
2023-01-26T15:21:00.151Z,24.52
2023-01-26T15:23:50.507Z,26.73
2023-01-26T15:26:36.521Z,25.40
2023-01-26T15:29:31.995Z,25.35
2023-01-26T15:32:32.529Z,29.60
2023-01-26T15:35:22.290Z,27.17
2023-01-26T15:38:13.677Z,33.88
2023-01-26T15:40:59.355Z,31.42
2023-01-26T15:43:44.379Z,32.58
2023-01-26T15:46:30.056Z,35.72
2023-01-26T15:49:19.803Z,31.65
2023-01-26T15:52:34.318Z,37.45
2023-01-26T15:55:24.418Z,31.38
2023-01-26T15:58:10.042Z,32.60
2023-01-26T16:00:55.325Z,32.10
2023-01-26T16:03:40.595Z,33.95
2023-01-26T16:06:28.131Z,35.67
2023-01-26T16:09:13.296Z,33.55
2023-01-26T16:11:58.688Z,35.35
2023-01-26T16:14:44.436Z,33.80
2023-01-26T16:17:29.695Z,36.42
2023-01-26T16:20:15.139Z,41.47
2023-01-26T16:23:00.720Z,35.47
2023-01-26T16:25:46.556Z,38.33
2023-01-26T16:28:31.782Z,38.58
2023-01-26T16:31:22.836Z,38.75
2023-01-26T16:34:09.528Z,39.05
2023-01-26T16:36:56.327Z,39.53
2023-01-26T16:39:41.850Z,42.33
2023-01-26T16:42:27.030Z,38.92
2023-01-26T16:45:34.549Z,46.53
2023-01-26T16:48:21.379Z,43.22
2023-01-26T16:51:21.774Z,40.42
2023-01-26T16:54:06.969Z,40.20
2023-01-26T16:56:52.645Z,35.95
2023-01-26T16:59:38.041Z,36.22
2023-01-26T17:02:26.278Z,43.72
2023-01-26T17:05:20.433Z,40.08
2023-01-26T17:08:06.044Z,35.53
2023-01-26T17:11:01.563Z,37.78
2023-01-26T17:13:48.029Z,35.35
2023-01-26T17:16:33.319Z,33.78
2023-01-26T17:19:18.633Z,37.53
2023-01-26T17:22:03.696Z,40.72
2023-01-26T17:24:49.738Z,42.05
2023-01-26T17:27:35.308Z,36.28
2023-01-26T17:30:20.744Z,39.95
2023-01-26T17:33:05.900Z,33.15
2023-01-26T17:36:00.278Z,34.22
2023-01-26T17:38:47.158Z,37.83
2023-01-26T17:41:32.436Z,35.28
2023-01-26T17:44:17.904Z,42.63
2023-01-26T17:47:03.104Z,38.97
2023-01-26T17:49:48.691Z,41.88
2023-01-26T17:52:36.297Z,42.28
2023-01-26T17:55:21.439Z,40.90
2023-01-26T17:58:10.796Z,42.38
2023-01-26T18:03:42.525Z,43.40
2023-01-26T18:06:29.268Z,43.33
2023-01-26T18:09:15.105Z,42.03
2023-01-26T18:12:00.375Z,41.65
2023-01-26T18:14:45.961Z,48.20
2023-01-26T18:17:31.039Z,44.25
2023-01-26T18:20:17.545Z,47.20
2023-01-26T18:23:02.827Z,40.50
2023-01-26T18:25:48.749Z,43.92
2023-01-26T18:28:33.832Z,46.45
2023-01-26T18:31:27.010Z,44.55
2023-01-26T18:34:12.160Z,41.25
2023-01-26T18:36:57.246Z,38.55
2023-01-26T18:39:42.804Z,37.08
2023-01-26T18:42:27.998Z,38.88
2023-01-26T18:45:13.698Z,40.72
2023-01-26T18:47:59.027Z,35.90
2023-01-26T18:50:48.497Z,37.33
2023-01-26T18:53:33.769Z,40.08
2023-01-26T18:56:19.279Z,42.17
2023-01-26T18:59:04.314Z,43.83
2023-01-26T19:01:50.521Z,40.47
2023-01-26T19:04:35.578Z,37.70
2023-01-26T19:07:21.018Z,38.53
2023-01-26T19:10:06.637Z,38.78
2023-01-26T19:12:52.220Z,38.03
2023-01-26T19:15:38.037Z,38.05
2023-01-26T19:18:23.854Z,44.35
2023-01-26T19:21:09.962Z,40.38
2023-01-26T19:23:58.397Z,50.13
2023-01-26T19:26:43.748Z,40.40
2023-01-26T19:29:28.988Z,43.30
2023-01-26T19:32:14.037Z,46.63
2023-01-26T19:34:59.399Z,45.20
2023-01-26T19:37:44.745Z,38.88
2023-01-26T19:40:31.781Z,39.35
2023-01-26T19:43:21.192Z,49.70
2023-01-26T19:46:08.464Z,49.90
2023-01-26T19:48:53.930Z,50.10
2023-01-26T19:51:39.185Z,44.83
2023-01-26T19:54:24.755Z,45.58
2023-01-26T19:57:10.888Z,48.50
2023-01-26T19:59:56.228Z,46.42
2023-01-26T20:02:41.470Z,46.92
2023-01-26T20:05:30.104Z,46.92
2023-01-26T20:08:15.565Z,47.72
2023-01-26T20:11:09.156Z,46.58
2023-01-26T20:13:56.264Z,44.00
2023-01-26T20:16:41.807Z,48.55
2023-01-26T20:19:28.144Z,43.45
2023-01-26T20:22:13.761Z,49.28
2023-01-26T20:25:00.184Z,49.97
2023-01-26T20:27:45.459Z,45.65
2023-01-26T20:30:30.520Z,43.45
2023-01-26T20:33:15.727Z,43.50
2023-01-26T20:36:05.631Z,45.63
2023-01-26T20:38:51.445Z,46.80
2023-01-26T20:41:37.296Z,39.08
2023-01-26T20:44:22.406Z,43.05
2023-01-26T20:47:08.158Z,44.88
2023-01-26T20:49:55.951Z,36.83
2023-01-26T20:52:43.630Z,41.25
2023-01-26T20:55:29.108Z,39.63
2023-01-26T20:58:14.371Z,38.40
2023-01-26T21:01:11.617Z,32.42
2023-01-26T21:03:56.654Z,37.08
2023-01-26T21:06:42.164Z,38.55
2023-01-26T21:09:27.490Z,44.20
2023-01-26T21:12:13.892Z,39.38
2023-01-26T21:15:00.676Z,44.05
2023-01-26T21:17:46.034Z,42.67
2023-01-26T21:20:31.446Z,40.47
2023-01-26T21:23:17.029Z,39.97
2023-01-26T21:26:05.858Z,39.38
2023-01-26T21:28:55.543Z,37.65
2023-01-26T21:31:41.148Z,37.38
2023-01-26T21:34:26.392Z,41.22
2023-01-26T21:37:11.698Z,38.17
2023-01-26T21:39:56.981Z,35.33
2023-01-26T21:42:42.353Z,34.72
2023-01-26T21:45:46.204Z,34.38
2023-01-26T21:48:39.199Z,33.28
2023-01-26T21:51:44.844Z,38.75
2023-01-26T21:54:30.454Z,37.25
2023-01-26T21:57:36.463Z,32.28
2023-01-26T22:00:22.623Z,38.35
2023-01-26T22:03:10.153Z,36.55
2023-01-26T22:05:56.739Z,37.28
2023-01-26T22:08:42.124Z,35.38
2023-01-26T22:11:28.294Z,31.00
2023-01-26T22:14:16.116Z,32.95
2023-01-26T22:17:01.368Z,30.98
2023-01-26T22:19:47.066Z,36.22
2023-01-26T22:22:32.173Z,38.38
2023-01-26T22:25:17.594Z,39.38
2023-01-26T22:28:03.422Z,32.25
2023-01-26T22:30:48.819Z,36.78
2023-01-26T22:33:35.413Z,41.95
2023-01-26T22:36:22.205Z,32.05
2023-01-26T22:39:07.949Z,38.03
2023-01-26T22:41:53.356Z,32.53
2023-01-26T22:44:38.504Z,32.05
2023-01-26T22:47:23.949Z,29.15
2023-01-26T22:50:10.637Z,32.20
2023-01-26T22:52:57.199Z,28.08
2023-01-26T22:55:43.699Z,28.15
2023-01-26T22:58:30.300Z,29.48
2023-01-26T23:01:17.976Z,32.50
2023-01-26T23:04:03.608Z,35.72
2023-01-26T23:06:48.716Z,29.80
2023-01-26T23:09:34.480Z,29.90
2023-01-26T23:12:20.321Z,27.52
2023-01-26T23:15:06.074Z,32.08
2023-01-26T23:17:52.911Z,27.05
2023-01-26T23:20:38.338Z,28.13
2023-01-26T23:23:24.593Z,22.25
2023-01-26T23:26:10.620Z,24.67
2023-01-26T23:28:55.743Z,23.17
2023-01-26T23:31:41.177Z,29.48
2023-01-26T23:34:26.186Z,26.10
2023-01-26T23:37:11.403Z,22.95
2023-01-26T23:39:56.912Z,23.55
2023-01-26T23:43:00.361Z,24.40
2023-01-26T23:45:49.059Z,25.60
2023-01-26T23:48:34.363Z,23.88
2023-01-26T23:51:19.449Z,21.50
2023-01-26T23:54:04.859Z,24.20
2023-01-26T23:56:50.354Z,25.35
2023-01-26T23:59:35.479Z,25.10
